Time;durP1;ratioP1;P1;durP2;ratioP2;P2;SDS_P1;SDS_P2;PMS_P1;PMS_P2;Temp;Humidity;BMP_temperature;BMP_pressure;BME280_temperature;BME280_humidity;BME280_pressure;Samples;Min_cycle;Max_cycle;Signal;HPM_P1;HPM_P2
2022/12/08 00:02:04;;;;;;;11.50;6.18;;;2.00;1.00;;;;;;5059449;28;20301;-88
2022/12/08 00:10:26;;;;;;;13.10;6.80;;;1.90;1.00;;;;;;5020975;28;20230;-90
2022/12/08 00:12:55;;;;;;;11.63;6.60;;;1.90;1.00;;;;;;5039108;28;20246;-89
2022/12/08 00:15:24;;;;;;;14.20;7.47;;;1.80;1.00;;;;;;5050118;28;20216;-88
2022/12/08 00:17:55;;;;;;;15.82;7.30;;;1.80;1.00;;;;;;5065100;28;20221;-89
2022/12/08 00:20:27;;;;;;;12.25;6.90;;;1.90;1.00;;;;;;5076213;28;20247;-87
2022/12/08 00:22:55;;;;;;;13.90;7.50;;;1.80;1.00;;;;;;5091120;28;20228;-90
2022/12/08 00:25:26;;;;;;;13.02;6.55;;;1.80;1.00;;;;;;5068734;28;20266;-89
2022/12/08 00:27:55;;;;;;;14.40;7.20;;;1.80;1.00;;;;;;5090182;27;20259;-89
2022/12/08 00:30:24;;;;;;;14.35;7.55;;;1.90;1.00;;;;;;5091224;27;20236;-89
2022/12/08 00:32:54;;;;;;;14.15;6.78;;;1.90;1.00;;;;;;5078764;28;20240;-88
2022/12/08 00:35:53;;;;;;;13.30;7.40;;;1.90;1.00;;;;;;5069788;28;20570;-89
2022/12/08 00:38:30;;;;;;;17.17;7.55;;;1.90;1.00;;;;;;5089392;28;20252;-88
2022/12/08 00:41:04;;;;;;;14.55;8.40;;;1.90;1.00;;;;;;5075378;28;20229;-90
2022/12/08 00:43:33;;;;;;;12.60;7.45;;;1.90;1.00;;;;;;5083940;28;20270;-90
2022/12/08 00:46:09;;;;;;;12.10;7.63;;;1.90;1.00;;;;;;5091841;27;20268;-87
2022/12/08 00:48:39;;;;;;;12.02;6.93;;;1.90;1.00;;;;;;5084094;28;20265;-90
2022/12/08 00:51:07;;;;;;;14.80;7.40;;;2.10;1.00;;;;;;5079079;28;20711;-90
2022/12/08 00:53:39;;;;;;;14.82;7.10;;;2.10;1.00;;;;;;5078439;28;20236;-90
2022/12/08 00:56:06;;;;;;;13.75;7.13;;;2.10;1.00;;;;;;5076692;28;20240;-90
2022/12/08 00:58:42;;;;;;;15.55;7.85;;;2.10;1.00;;;;;;5078502;28;20221;-90
2022/12/08 01:01:23;;;;;;;14.85;7.65;;;2.10;1.00;;;;;;5078111;28;20294;-91
2022/12/08 01:03:53;;;;;;;13.73;7.68;;;2.20;1.00;;;;;;5065263;28;20236;-90
2022/12/08 01:06:29;;;;;;;14.32;7.90;;;2.20;1.00;;;;;;5052823;28;20242;-89
2022/12/08 01:08:57;;;;;;;15.25;8.35;;;2.30;1.00;;;;;;5051009;28;20246;-90
2022/12/08 01:11:35;;;;;;;14.38;7.50;;;2.30;1.00;;;;;;5049638;28;20299;-91
2022/12/08 01:14:05;;;;;;;15.13;6.78;;;2.40;1.00;;;;;;5075030;27;20233;-89
2022/12/08 01:16:37;;;;;;;15.35;7.72;;;2.40;1.00;;;;;;5056033;28;20210;-89
2022/12/08 01:19:07;;;;;;;13.35;7.65;;;2.40;1.00;;;;;;5049018;28;20310;-89
2022/12/08 01:21:39;;;;;;;14.35;8.18;;;2.30;1.00;;;;;;5083524;28;20251;-88
2022/12/08 01:24:07;;;;;;;12.88;7.80;;;2.40;1.00;;;;;;5070980;28;20257;-89
2022/12/08 01:26:36;;;;;;;12.95;7.07;;;2.40;1.00;;;;;;5050535;28;20244;-88
2022/12/08 01:29:05;;;;;;;14.80;7.78;;;2.30;1.00;;;;;;5054026;28;20551;-89
2022/12/08 01:31:35;;;;;;;20.63;8.93;;;2.40;1.00;;;;;;5062640;28;20254;-88
2022/12/08 01:34:06;;;;;;;15.93;9.00;;;2.40;1.00;;;;;;5054404;28;20424;-88
2022/12/08 01:36:43;;;;;;;13.30;7.68;;;2.40;1.00;;;;;;5049611;28;20234;-89
2022/12/08 01:39:19;;;;;;;12.00;7.93;;;2.40;1.00;;;;;;5064812;28;20245;-90
2022/12/08 01:41:48;;;;;;;14.55;8.30;;;2.40;1.00;;;;;;5053984;28;20242;-88
2022/12/08 01:44:54;;;;;;;15.00;9.73;;;2.40;1.00;;;;;;5056332;28;20237;-89
2022/12/08 01:47:27;;;;;;;16.98;9.90;;;2.40;1.00;;;;;;5072682;28;20245;-89
2022/12/08 01:50:10;;;;;;;;;;;;;;;;;;;;;
2022/12/08 01:53:07;;;;;;;13.45;7.10;;;2.40;1.00;;;;;;5070775;28;50431;-89
2022/12/08 01:55:46;;;;;;;13.18;6.47;;;2.30;1.00;;;;;;5066187;28;20217;-89
2022/12/08 01:58:25;;;;;;;14.63;6.85;;;2.20;1.00;;;;;;5061546;28;20229;-90
2022/12/08 02:01:00;;;;;;;12.80;7.30;;;2.10;1.00;;;;;;5056836;28;21024;-89
2022/12/08 02:03:35;;;;;;;13.60;8.02;;;2.00;1.00;;;;;;5076412;28;20232;-89
2022/12/08 02:06:08;;;;;;;11.32;6.40;;;2.10;1.00;;;;;;5053831;28;20328;-89
2022/12/08 02:08:53;;;;;;;13.73;6.75;;;2.10;1.00;;;;;;5049677;28;20248;-89
2022/12/08 02:11:21;;;;;;;13.30;7.30;;;2.00;1.00;;;;;;5040666;28;20300;-90
2022/12/08 02:13:59;;;;;;;15.70;8.23;;;2.00;1.00;;;;;;5038053;28;20287;-89
2022/12/08 02:16:38;;;;;;;14.20;7.50;;;2.10;1.00;;;;;;5047996;28;20237;-90
2022/12/08 02:19:36;;;;;;;12.45;6.68;;;2.10;1.00;;;;;;5052948;28;20711;-89
2022/12/08 02:22:14;;;;;;;13.52;7.70;;;2.10;1.00;;;;;;5041029;28;20261;-88
2022/12/08 02:24:56;;;;;;;12.45;6.82;;;2.10;1.00;;;;;;5051987;28;20241;-89
2022/12/08 02:27:44;;;;;;;14.25;7.35;;;2.00;1.00;;;;;;5055462;28;20234;-90
2022/12/08 02:30:38;;;;;;;14.70;7.00;;;2.00;1.00;;;;;;5053145;28;20244;-89
2022/12/08 02:33:54;;;;;;;13.10;6.82;;;2.00;1.00;;;;;;5044717;28;20241;-89
2022/12/08 02:36:36;;;;;;;16.77;7.20;;;1.90;1.00;;;;;;5038318;28;20267;-89
2022/12/08 02:39:21;;;;;;;12.85;6.82;;;1.80;1.00;;;;;;5057187;28;20225;-89
2022/12/08 02:42:00;;;;;;;11.75;6.78;;;1.90;1.00;;;;;;5043747;28;20293;-90
2022/12/08 02:44:44;;;;;;;13.43;7.03;;;1.70;1.00;;;;;;5039987;28;20240;-89
2022/12/08 02:47:38;;;;;;;;;;;;;;;;;;;;;
2022/12/08 02:50:08;;;;;;;13.15;6.65;;;1.60;1.00;;;;;;5031306;28;39958;-90
2022/12/08 02:53:00;;;;;;;12.75;6.90;;;1.50;1.00;;;;;;5036361;28;20261;-90
2022/12/08 02:55:34;;;;;;;13.07;6.97;;;1.50;1.00;;;;;;5047562;28;20245;-89
2022/12/08 02:58:48;;;;;;;;;;;;;;;;;;;;;
2022/12/08 03:04:35;;;;;;;14.93;7.15;;;1.50;1.00;;;;;;5040208;28;20222;-89
2022/12/08 03:07:08;;;;;;;12.93;7.28;;;1.50;1.00;;;;;;5050515;28;20214;-88
2022/12/08 03:09:44;;;;;;;14.15;7.60;;;1.50;1.00;;;;;;5060316;28;20298;-89
2022/12/08 03:12:37;;;;;;;11.82;6.45;;;1.50;1.00;;;;;;5056478;28;20219;-88
2022/12/08 03:15:10;;;;;;;11.60;6.30;;;1.60;1.00;;;;;;4961531;28;21845;-90
2022/12/08 03:18:24;;;;;;;12.10;6.57;;;1.60;1.00;;;;;;5054985;28;20219;-90
2022/12/08 03:21:00;;;;;;;12.90;7.45;;;1.60;1.00;;;;;;5053714;28;20236;-89
2022/12/08 03:23:28;;;;;;;14.55;6.25;;;1.60;1.00;;;;;;5050033;28;20236;-90
2022/12/08 03:26:07;;;;;;;13.15;6.55;;;1.60;1.00;;;;;;5049439;28;20214;-90
2022/12/08 03:28:36;;;;;;;11.20;6.15;;;1.60;1.00;;;;;;5053486;28;20240;-89
2022/12/08 03:31:14;;;;;;;12.90;7.07;;;1.60;1.00;;;;;;5016693;28;20324;-88
2022/12/08 03:33:57;;;;;;;11.38;6.13;;;1.60;1.00;;;;;;5037462;28;20229;-88
2022/12/08 03:36:27;;;;;;;10.20;5.55;;;1.60;1.00;;;;;;5052602;28;20225;-88
2022/12/08 03:39:04;;;;;;;14.20;6.95;;;1.60;1.00;;;;;;5025621;28;20739;-90
2022/12/08 03:41:41;;;;;;;19.90;11.40;;;1.60;1.00;;;;;;5012163;28;20214;-89
2022/12/08 03:44:12;;;;;;;10.80;6.07;;;1.60;1.00;;;;;;5034868;28;20238;-89
2022/12/08 03:46:44;;;;;;;14.70;7.78;;;1.60;1.00;;;;;;5025985;28;20291;-89
2022/12/08 03:49:13;;;;;;;12.95;7.50;;;1.60;1.00;;;;;;5026668;28;20241;-90
2022/12/08 03:51:44;;;;;;;13.98;8.43;;;1.60;1.00;;;;;;5029045;28;20234;-89
2022/12/08 03:54:25;;;;;;;11.00;6.10;;;1.50;1.00;;;;;;5027443;28;20254;-92
2022/12/08 03:56:57;;;;;;;12.02;6.97;;;1.40;1.00;;;;;;5041135;28;20236;-93
2022/12/08 03:59:34;;;;;;;13.05;7.13;;;1.40;1.00;;;;;;5037919;28;20239;-93
2022/12/08 04:02:16;;;;;;;13.15;7.53;;;1.50;1.00;;;;;;5040969;28;20247;-92
2022/12/08 04:04:57;;;;;;;12.43;8.00;;;1.50;1.00;;;;;;5036955;28;20248;-90
2022/12/08 04:07:27;;;;;;;13.77;8.25;;;1.50;1.00;;;;;;5062215;28;20343;-90
2022/12/08 04:10:04;;;;;;;14.43;8.35;;;1.50;1.00;;;;;;5020741;28;20214;-92
2022/12/08 04:12:56;;;;;;;15.25;9.05;;;1.60;1.00;;;;;;4995879;28;20238;-93
2022/12/08 04:15:26;;;;;;;14.50;8.90;;;1.50;1.00;;;;;;5016172;28;20984;-93
2022/12/08 04:17:53;;;;;;;17.65;9.00;;;1.60;1.00;;;;;;4998720;28;20297;-93
2022/12/08 04:26:38;;;;;;;17.45;10.55;;;1.70;1.00;;;;;;4911003;28;20961;-94
2022/12/08 04:32:04;;;;;;;18.13;9.95;;;1.60;1.00;;;;;;4947576;28;20316;-90
2022/12/08 04:34:37;;;;;;;17.33;9.75;;;1.70;1.00;;;;;;5003008;28;20230;-92
2022/12/08 04:37:17;;;;;;;17.60;10.93;;;1.80;1.00;;;;;;4999816;28;20230;-92
2022/12/08 04:39:46;;;;;;;20.63;11.60;;;1.80;1.00;;;;;;5002216;28;20249;-92
2022/12/08 04:42:17;;;;;;;18.77;11.07;;;1.70;1.00;;;;;;5002505;28;20253;-90
2022/12/08 04:44:58;;;;;;;18.00;11.88;;;1.80;1.00;;;;;;5011039;28;20239;-92
2022/12/08 04:50:26;;;;;;;17.38;11.10;;;1.70;1.00;;;;;;5001354;28;20230;-93
2022/12/08 04:53:09;;;;;;;;;;;;;;;;;;;;;
2022/12/08 04:55:47;;;;;;;18.33;12.07;;;1.60;1.00;;;;;;4994022;28;50324;-93
2022/12/08 04:58:25;;;;;;;20.23;13.43;;;1.70;1.00;;;;;;4981212;28;20230;-91
2022/12/08 05:04:16;;;;;;;22.98;14.27;;;1.70;1.00;;;;;;5111412;22;20246;-82
2022/12/08 05:06:46;;;;;;;22.77;13.90;;;1.80;1.00;;;;;;5073010;28;21111;-80
2022/12/08 05:09:13;;;;;;;20.73;13.95;;;1.80;1.00;;;;;;5074373;28;20268;-83
2022/12/08 05:11:45;;;;;;;22.75;15.02;;;1.90;1.00;;;;;;5074204;28;20293;-82
2022/12/08 05:14:14;;;;;;;23.70;15.80;;;1.80;1.00;;;;;;5074980;28;20293;-84
2022/12/08 05:16:46;;;;;;;22.38;14.77;;;1.90;1.00;;;;;;5074581;28;20240;-83
2022/12/08 05:19:14;;;;;;;22.60;14.40;;;1.90;1.00;;;;;;5081388;28;20243;-78
2022/12/08 05:21:47;;;;;;;24.35;15.82;;;1.90;1.00;;;;;;5078505;28;20254;-83
2022/12/08 05:24:14;;;;;;;22.40;14.63;;;1.90;1.00;;;;;;5077654;28;20240;-78
2022/12/08 05:29:25;;;;;;;23.13;15.38;;;2.10;1.00;;;;;;5075057;28;20232;-81
2022/12/08 05:31:52;;;;;;;24.83;14.00;;;2.10;1.00;;;;;;5074308;28;20221;-81
2022/12/08 05:34:19;;;;;;;70.93;43.80;;;2.10;1.00;;;;;;5076606;28;20324;-82
2022/12/08 05:36:48;;;;;;;23.77;15.65;;;2.10;1.00;;;;;;5072200;28;21043;-79
2022/12/08 05:39:15;;;;;;;26.10;16.48;;;2.20;1.00;;;;;;5075179;28;20995;-79
2022/12/08 05:41:46;;;;;;;24.65;17.30;;;2.30;1.00;;;;;;5072025;28;20943;-83
2022/12/08 05:44:13;;;;;;;33.03;20.10;;;2.40;1.00;;;;;;5077177;28;20905;-80
2022/12/08 05:46:45;;;;;;;30.02;16.98;;;2.40;1.00;;;;;;5076093;28;20276;-80
2022/12/08 05:49:12;;;;;;;25.42;16.10;;;2.40;1.00;;;;;;5075295;28;20237;-80
2022/12/08 05:51:40;;;;;;;25.83;18.35;;;2.50;1.00;;;;;;5075083;28;20237;-81
2022/12/08 05:54:09;;;;;;;24.52;17.48;;;2.50;1.00;;;;;;5080582;28;20275;-80
2022/12/08 05:56:36;;;;;;;25.77;15.40;;;2.50;1.00;;;;;;5075792;28;20252;-80
2022/12/08 05:59:08;;;;;;;24.50;15.73;;;2.50;1.00;;;;;;5079492;28;20237;-80
2022/12/08 06:01:35;;;;;;;22.92;14.05;;;2.50;1.00;;;;;;5083444;28;20240;-80
2022/12/08 06:04:07;;;;;;;23.77;16.70;;;2.50;1.00;;;;;;5074412;28;21146;-80
2022/12/08 06:06:36;;;;;;;25.58;16.00;;;2.60;1.00;;;;;;5080791;28;20257;-79
2022/12/08 06:09:11;;;;;;;25.30;16.10;;;2.60;1.00;;;;;;5083646;28;20236;-80
2022/12/08 06:11:38;;;;;;;26.88;15.93;;;2.50;1.00;;;;;;5077218;28;20232;-83
2022/12/08 06:14:10;;;;;;;25.50;16.15;;;2.50;1.00;;;;;;5082756;28;20314;-81
2022/12/08 06:16:37;;;;;;;29.50;16.27;;;2.70;1.00;;;;;;5085591;28;20267;-80
2022/12/08 06:19:06;;;;;;;22.60;13.77;;;2.70;1.00;;;;;;5075442;28;20229;-80
2022/12/08 06:21:34;;;;;;;24.15;15.80;;;2.80;1.00;;;;;;5078744;28;20262;-82
2022/12/08 06:24:06;;;;;;;26.77;16.15;;;2.80;1.00;;;;;;5080664;27;20249;-82
2022/12/08 06:26:35;;;;;;;27.65;16.40;;;2.70;1.00;;;;;;5076900;28;20319;-82
2022/12/08 06:29:09;;;;;;;26.83;16.58;;;2.60;1.00;;;;;;5076714;28;20320;-80
2022/12/08 06:31:36;;;;;;;26.52;17.88;;;2.60;1.00;;;;;;5075055;28;20870;-76
2022/12/08 06:34:06;;;;;;;27.85;16.70;;;2.60;1.00;;;;;;5078679;28;20226;-81
2022/12/08 06:36:33;;;;;;;27.35;16.73;;;2.60;1.00;;;;;;5075426;28;21076;-79
2022/12/08 06:39:05;;;;;;;28.10;16.58;;;2.70;1.00;;;;;;5075121;28;20224;-78
2022/12/08 06:42:42;;;;;;;25.92;16.58;;;2.80;1.00;;;;;;5081657;28;20320;-77
2022/12/08 06:44:27;;;;;;;24.23;15.85;;;2.70;1.00;;;;;;5074496;28;20224;-79
2022/12/08 06:46:54;;;;;;;24.02;14.02;;;2.70;1.00;;;;;;5079385;28;20232;-80
2022/12/08 06:49:26;;;;;;;27.55;20.88;;;2.70;1.00;;;;;;5075945;28;20232;-82
2022/12/08 06:51:53;;;;;;;27.52;16.85;;;2.70;1.00;;;;;;5074877;28;20247;-78
2022/12/08 06:54:23;;;;;;;25.98;16.92;;;2.70;1.00;;;;;;5074760;28;20315;-78
2022/12/08 06:56:52;;;;;;;26.35;16.50;;;2.60;1.00;;;;;;5074521;28;20268;-76
2022/12/08 06:59:19;;;;;;;26.58;16.65;;;2.60;1.00;;;;;;5080389;28;21150;-80
2022/12/08 07:01:46;;;;;;;26.13;15.77;;;2.60;1.00;;;;;;5075178;28;20266;-79
2022/12/08 07:04:14;;;;;;;29.63;16.20;;;2.60;1.00;;;;;;5082682;28;20247;-79
2022/12/08 07:06:46;;;;;;;22.40;14.82;;;2.70;1.00;;;;;;5080176;28;20228;-76
2022/12/08 07:09:14;;;;;;;25.67;15.57;;;2.70;1.00;;;;;;5076305;28;20266;-80
2022/12/08 07:11:46;;;;;;;23.30;15.77;;;2.70;1.00;;;;;;5079781;28;20989;-79
2022/12/08 07:14:14;;;;;;;29.10;18.50;;;2.70;1.00;;;;;;5076292;28;20250;-83
2022/12/08 07:16:47;;;;;;;30.45;19.35;;;2.70;1.00;;;;;;5080765;28;20252;-83
2022/12/08 07:19:16;;;;;;;29.48;15.95;;;2.80;1.00;;;;;;5079689;28;20247;-80
2022/12/08 07:21:46;;;;;;;28.95;16.48;;;2.80;1.00;;;;;;5082758;28;20301;-81
2022/12/08 07:24:19;;;;;;;22.33;14.15;;;2.90;1.00;;;;;;5074750;28;20294;-80
2022/12/08 07:26:49;;;;;;;24.48;15.30;;;2.90;1.00;;;;;;5070751;28;21083;-80
2022/12/08 07:29:21;;;;;;;30.45;16.48;;;2.90;1.00;;;;;;5066592;28;20253;-81
2022/12/08 07:31:48;;;;;;;24.67;15.52;;;2.90;1.00;;;;;;5082927;28;20242;-83
2022/12/08 07:34:17;;;;;;;23.17;14.15;;;2.90;1.00;;;;;;5061168;28;20319;-82
2022/12/08 07:36:59;;;;;;;24.17;14.00;;;2.90;1.00;;;;;;5074025;28;20293;-81
2022/12/08 07:39:35;;;;;;;25.65;15.48;;;2.80;1.00;;;;;;5070629;28;20255;-82
2022/12/08 07:42:04;;;;;;;26.73;15.88;;;2.80;1.00;;;;;;5053376;28;20237;-82
2022/12/08 07:44:41;;;;;;;24.75;13.15;;;2.80;1.00;;;;;;5066627;28;20244;-83
2022/12/08 07:47:08;;;;;;;23.38;14.55;;;2.70;1.00;;;;;;5038190;28;20241;-83
2022/12/08 07:49:38;;;;;;;26.38;14.77;;;2.70;1.00;;;;;;5066288;28;20238;-81
2022/12/08 07:52:05;;;;;;;21.05;13.27;;;2.70;1.00;;;;;;5054902;28;20736;-82
2022/12/08 07:54:42;;;;;;;23.08;14.05;;;2.70;1.00;;;;;;5050634;28;20217;-80
2022/12/08 07:57:09;;;;;;;22.60;14.50;;;2.80;1.00;;;;;;5046241;28;20320;-80
2022/12/08 07:59:38;;;;;;;25.15;15.32;;;2.90;1.00;;;;;;5048905;28;20249;-81
2022/12/08 08:02:06;;;;;;;23.40;14.82;;;3.00;1.00;;;;;;5047995;28;21231;-80
2022/12/08 08:04:39;;;;;;;20.67;14.23;;;3.00;1.00;;;;;;5054471;28;20207;-81
2022/12/08 08:07:06;;;;;;;25.75;15.57;;;3.00;1.00;;;;;;5052597;28;20277;-82
2022/12/08 08:09:37;;;;;;;22.73;14.43;;;3.00;1.00;;;;;;5066528;28;20328;-82
2022/12/08 08:12:04;;;;;;;20.63;13.55;;;3.10;1.00;;;;;;5082296;28;20228;-83
2022/12/08 08:14:38;;;;;;;24.27;14.05;;;3.00;1.00;;;;;;5082417;28;20224;-80
2022/12/08 08:17:07;;;;;;;28.50;13.80;;;3.10;1.00;;;;;;5075347;28;20240;-81
2022/12/08 08:19:37;;;;;;;21.42;12.75;;;3.00;1.00;;;;;;5071037;28;20262;-80
2022/12/08 08:22:04;;;;;;;22.45;13.95;;;3.00;1.00;;;;;;5074372;28;20245;-81
2022/12/08 08:24:42;;;;;;;23.73;14.45;;;3.10;1.00;;;;;;5074882;28;20228;-81
2022/12/08 08:27:09;;;;;;;23.92;14.98;;;3.20;1.00;;;;;;5079048;28;20233;-83
2022/12/08 08:29:38;;;;;;;27.63;15.20;;;3.20;1.00;;;;;;5083671;28;20222;-81
2022/12/08 08:32:07;;;;;;;23.08;14.02;;;3.20;1.00;;;;;;5083333;28;20231;-81
2022/12/08 08:34:39;;;;;;;26.60;14.60;;;3.10;1.00;;;;;;5082646;28;20320;-82
2022/12/08 08:37:07;;;;;;;22.02;14.00;;;3.20;1.00;;;;;;5061258;28;20241;-82
2022/12/08 08:39:37;;;;;;;21.40;14.55;;;3.20;1.00;;;;;;5055835;28;20264;-80
2022/12/08 08:42:08;;;;;;;27.35;15.10;;;3.20;1.00;;;;;;5079668;28;20243;-82
2022/12/08 08:44:45;;;;;;;25.65;13.98;;;3.30;1.00;;;;;;5083329;28;20237;-82
2022/12/08 08:47:29;;;;;;;18.38;13.00;;;3.40;1.00;;;;;;5056915;28;20235;-85
2022/12/08 08:49:59;;;;;;;20.33;13.57;;;3.50;1.00;;;;;;5078420;28;20352;-83
2022/12/08 08:52:49;;;;;;;27.90;14.18;;;3.50;1.00;;;;;;5078472;28;20339;-82
2022/12/08 08:55:17;;;;;;;22.20;13.45;;;3.50;1.00;;;;;;5052642;28;20246;-83
2022/12/08 08:57:45;;;;;;;23.30;14.48;;;3.50;1.00;;;;;;5081430;28;20243;-84
2022/12/08 09:00:24;;;;;;;24.45;15.20;;;3.40;1.00;;;;;;5079984;28;20255;-83
2022/12/08 09:02:56;;;;;;;25.63;14.32;;;3.40;1.00;;;;;;5078327;28;20243;-84
2022/12/08 09:05:24;;;;;;;26.83;15.90;;;3.40;1.00;;;;;;5084248;28;20268;-80
2022/12/08 09:08:02;;;;;;;22.67;13.95;;;3.50;1.00;;;;;;5080109;28;20244;-81
2022/12/08 09:10:39;;;;;;;21.80;14.45;;;3.60;1.00;;;;;;5030083;28;20336;-82
2022/12/08 09:13:06;;;;;;;24.10;14.75;;;3.80;1.00;;;;;;5058802;28;20241;-79
2022/12/08 09:15:44;;;;;;;21.33;14.07;;;3.90;1.00;;;;;;5052480;28;20208;-80
2022/12/08 09:18:17;;;;;;;23.88;14.50;;;4.00;1.00;;;;;;5067663;28;20248;-83
2022/12/08 09:20:44;;;;;;;22.20;15.80;;;4.10;1.00;;;;;;5080381;28;20442;-81
2022/12/08 09:23:20;;;;;;;24.63;15.15;;;4.00;1.00;;;;;;5071429;28;20235;-79
2022/12/08 09:26:07;;;;;;;22.38;13.55;;;4.10;1.00;;;;;;5072786;28;20281;-76
2022/12/08 09:28:37;;;;;;;26.17;15.48;;;4.20;1.00;;;;;;5075067;28;20293;-80
2022/12/08 09:31:06;;;;;;;25.35;15.27;;;4.20;1.00;;;;;;5072721;28;20237;-77
2022/12/08 09:33:38;;;;;;;21.92;16.08;;;4.20;1.00;;;;;;5069194;28;20272;-79
2022/12/08 09:36:09;;;;;;;25.08;14.85;;;4.20;1.00;;;;;;5076519;28;20229;-77
2022/12/08 09:38:37;;;;;;;22.38;14.88;;;4.20;1.00;;;;;;5066383;28;20294;-76
2022/12/08 09:41:15;;;;;;;31.08;18.85;;;4.20;1.00;;;;;;5088470;28;20324;-77
2022/12/08 09:43:56;;;;;;;23.80;14.80;;;4.20;1.00;;;;;;5081222;28;20232;-79
2022/12/08 09:46:35;;;;;;;20.50;14.60;;;4.20;1.00;;;;;;5077938;28;20291;-81
2022/12/08 09:49:03;;;;;;;20.70;14.82;;;4.10;1.00;;;;;;5075730;28;21250;-80
2022/12/08 09:51:41;;;;;;;23.98;14.50;;;4.10;1.00;;;;;;5076438;28;20268;-78
2022/12/08 09:54:16;;;;;;;21.98;13.45;;;4.10;1.00;;;;;;5078410;28;20237;-76
2022/12/08 09:56:44;;;;;;;26.02;15.02;;;4.10;1.00;;;;;;5077424;28;20296;-76
2022/12/08 09:59:28;;;;;;;23.50;14.57;;;4.10;1.00;;;;;;5081687;27;20226;-81
2022/12/08 10:02:01;;;;;;;25.30;15.20;;;4.10;1.00;;;;;;5074341;28;20221;-82
2022/12/08 10:04:36;;;;;;;23.23;14.00;;;4.10;1.00;;;;;;5073902;28;20244;-82
2022/12/08 10:07:22;;;;;;;24.65;15.63;;;4.20;1.00;;;;;;5076946;28;20239;-80
2022/12/08 10:10:03;;;;;;;21.58;14.02;;;4.20;1.00;;;;;;5059706;28;20245;-81
2022/12/08 10:12:47;;;;;;;26.38;14.40;;;4.20;1.00;;;;;;5072847;28;20255;-82
2022/12/08 10:15:36;;;;;;;24.02;14.52;;;4.20;1.00;;;;;;5074584;28;20221;-82
2022/12/08 10:18:17;;;;;;;24.30;13.93;;;4.10;1.00;;;;;;5099563;28;20255;-81
2022/12/08 10:20:46;;;;;;;25.50;15.40;;;4.20;1.00;;;;;;5087749;28;20250;-81
2022/12/08 10:23:39;;;;;;;26.77;15.43;;;4.30;1.00;;;;;;5081170;28;20263;-81
2022/12/08 10:26:11;;;;;;;25.42;15.10;;;4.30;1.00;;;;;;5079510;28;20265;-83
2022/12/08 10:28:44;;;;;;;23.13;15.13;;;4.20;1.00;;;;;;5081153;28;21045;-83
2022/12/08 10:31:17;;;;;;;21.02;13.90;;;4.10;1.00;;;;;;5082453;28;20239;-81
2022/12/08 10:33:59;;;;;;;20.25;13.52;;;4.10;1.00;;;;;;5085699;28;20244;-79
2022/12/08 10:36:47;;;;;;;22.45;13.77;;;4.10;1.00;;;;;;5076872;28;20271;-78
2022/12/08 10:39:31;;;;;;;25.77;14.57;;;3.90;1.00;;;;;;5083599;28;20995;-78
2022/12/08 10:42:07;;;;;;;20.58;13.95;;;4.00;1.00;;;;;;5080070;28;20286;-86
2022/12/08 10:44:57;;;;;;;18.95;12.73;;;4.00;1.00;;;;;;5079195;28;20974;-83
2022/12/08 10:47:30;;;;;;;23.40;14.30;;;4.10;1.00;;;;;;5079372;28;20232;-80
2022/12/08 10:50:24;;;;;;;21.65;13.57;;;4.10;1.00;;;;;;5082484;28;21130;-82
2022/12/08 10:52:57;;;;;;;21.17;14.15;;;4.10;1.00;;;;;;5082854;28;20230;-80
2022/12/08 10:55:46;;;;;;;21.58;13.75;;;4.10;1.00;;;;;;5083616;28;20237;-82
2022/12/08 10:58:34;;;;;;;21.02;13.98;;;4.20;1.00;;;;;;5080701;28;21655;-83
2022/12/08 11:01:18;;;;;;;20.05;14.13;;;4.20;1.00;;;;;;5077060;28;20223;-83
2022/12/08 11:03:51;;;;;;;19.70;12.48;;;4.20;1.00;;;;;;5074382;28;20236;-77
2022/12/08 11:06:25;;;;;;;20.20;11.73;;;4.10;1.00;;;;;;5078720;28;20256;-77
2022/12/08 11:09:00;;;;;;;19.17;12.68;;;4.10;1.00;;;;;;5077576;28;20276;-81
2022/12/08 11:11:47;;;;;;;20.73;13.38;;;4.00;1.00;;;;;;5079243;28;20255;-81
2022/12/08 11:14:19;;;;;;;19.83;11.70;;;3.90;1.00;;;;;;5088167;28;20247;-83
2022/12/08 11:16:55;;;;;;;20.40;12.85;;;3.90;1.00;;;;;;5086982;28;20232;-82
2022/12/08 11:19:27;;;;;;;18.30;12.52;;;3.80;1.00;;;;;;5088338;28;20228;-84
2022/12/08 11:21:58;;;;;;;18.20;12.57;;;3.80;1.00;;;;;;5078118;28;20257;-83
2022/12/08 11:24:28;;;;;;;25.25;13.90;;;3.80;1.00;;;;;;5085459;28;20828;-81
2022/12/08 11:27:02;;;;;;;24.55;12.93;;;3.80;1.00;;;;;;5079461;28;20241;-80
2022/12/08 11:29:32;;;;;;;21.15;13.50;;;3.80;1.00;;;;;;5071213;28;20296;-85
2022/12/08 11:32:04;;;;;;;19.60;12.80;;;3.80;1.00;;;;;;5080491;28;20236;-76
2022/12/08 11:34:41;;;;;;;20.90;12.30;;;3.70;1.00;;;;;;5074432;28;20659;-78
2022/12/08 11:37:19;;;;;;;18.35;12.30;;;3.70;1.00;;;;;;5079055;28;20232;-79
2022/12/08 11:39:50;;;;;;;20.92;13.45;;;3.60;1.00;;;;;;5074596;28;20237;-78
2022/12/08 11:42:21;;;;;;;20.95;12.63;;;3.70;1.00;;;;;;5076884;28;20960;-84
2022/12/08 11:45:00;;;;;;;20.05;12.27;;;3.70;1.00;;;;;;5087915;28;20386;-79
2022/12/08 11:47:37;;;;;;;19.20;12.75;;;3.70;1.00;;;;;;5071676;28;20243;-82
2022/12/08 11:50:20;;;;;;;21.45;11.65;;;3.70;1.00;;;;;;5254422;22;20248;-81
2022/12/08 11:52:56;;;;;;;20.38;13.18;;;3.80;1.00;;;;;;5089619;27;21089;-85
2022/12/08 11:55:47;;;;;;;18.02;11.57;;;3.80;1.00;;;;;;5071582;28;20249;-82
2022/12/08 11:58:37;;;;;;;20.77;12.88;;;3.80;1.00;;;;;;5065368;28;20252;-82
2022/12/08 12:01:28;;;;;;;20.02;13.23;;;3.80;1.00;;;;;;5052073;28;20382;-77
2022/12/08 12:04:07;;;;;;;17.10;11.25;;;3.80;1.00;;;;;;5054634;28;20210;-81
2022/12/08 12:07:08;;;;;;;18.98;12.38;;;3.80;1.00;;;;;;5076738;28;20217;-80
2022/12/08 12:09:50;;;;;;;20.10;13.25;;;3.90;1.00;;;;;;5072328;28;20271;-78
2022/12/08 12:12:34;;;;;;;21.60;13.77;;;3.90;1.00;;;;;;5078713;28;20238;-78
2022/12/08 12:15:32;;;;;;;20.75;12.85;;;3.90;1.00;;;;;;5083332;27;20248;-77
2022/12/08 12:18:05;;;;;;;19.17;12.43;;;3.80;1.00;;;;;;5081433;27;21005;-79
2022/12/08 12:20:36;;;;;;;21.67;13.48;;;3.90;1.00;;;;;;5080849;28;20281;-79
2022/12/08 12:23:15;;;;;;;19.60;12.48;;;3.90;1.00;;;;;;5079773;27;20378;-80
2022/12/08 12:25:55;;;;;;;18.98;13.25;;;4.00;1.00;;;;;;5066836;28;20376;-77
2022/12/08 12:28:27;;;;;;;18.23;11.73;;;4.00;1.00;;;;;;5057585;28;20260;-78
2022/12/08 12:31:00;;;;;;;16.80;11.70;;;4.00;1.00;;;;;;5062281;28;20241;-78
2022/12/08 12:33:30;;;;;;;15.93;9.82;;;4.10;1.00;;;;;;5084766;28;20246;-76
2022/12/08 12:36:06;;;;;;;14.95;9.73;;;4.00;1.00;;;;;;5081892;28;20237;-78
2022/12/08 12:41:34;;;;;;;16.13;11.82;;;3.90;1.00;;;;;;5084053;28;20225;-81
2022/12/08 12:44:27;;;;;;;16.13;11.05;;;3.90;1.00;;;;;;5261189;22;20240;-80
2022/12/08 12:47:11;;;;;;;17.52;11.23;;;3.90;1.00;;;;;;5082262;28;20276;-78
2022/12/08 12:50:08;;;;;;;17.20;10.10;;;4.00;1.00;;;;;;5080347;28;20257;-79
2022/12/08 12:52:48;;;;;;;17.80;11.52;;;4.00;1.00;;;;;;5080201;28;20233;-81
2022/12/08 12:55:27;;;;;;;17.90;10.20;;;4.00;1.00;;;;;;5081511;28;20243;-80
2022/12/08 12:58:04;;;;;;;18.70;11.10;;;4.10;1.00;;;;;;5090405;28;20232;-80
2022/12/08 13:00:33;;;;;;;16.40;11.02;;;4.10;1.00;;;;;;5084079;27;20239;-78
2022/12/08 13:03:05;;;;;;;17.65;11.10;;;4.10;1.00;;;;;;5075501;28;20324;-79
2022/12/08 13:05:53;;;;;;;18.08;11.85;;;4.10;1.00;;;;;;5083676;28;20232;-80
2022/12/08 13:08:28;;;;;;;17.67;10.95;;;4.10;1.00;;;;;;5080977;28;20237;-78
2022/12/08 13:11:08;;;;;;;17.25;11.73;;;4.10;1.00;;;;;;5071968;28;20232;-80
2022/12/08 13:13:57;;;;;;;19.88;12.18;;;4.10;1.00;;;;;;5092184;27;20406;-79
2022/12/08 13:16:58;;;;;;;17.88;10.52;;;4.10;1.00;;;;;;5081581;28;20224;-78
2022/12/08 13:19:35;;;;;;;18.67;12.10;;;4.00;1.00;;;;;;5311881;22;20227;-84
2022/12/08 13:26:19;;;;;;;15.40;10.32;;;4.00;1.00;;;;;;5088792;28;20228;-84
2022/12/08 13:34:20;;;;;;;21.27;12.57;;;3.90;1.00;;;;;;4070019;22;20232;-88
2022/12/08 13:37:27;;;;;;;17.77;12.23;;;3.90;1.00;;;;;;5064940;28;20270;-79
2022/12/08 13:45:27;;;;;;;18.23;12.95;;;4.10;1.00;;;;;;5063132;28;20261;-81
2022/12/08 13:48:07;;;;;;;18.98;14.02;;;4.10;1.00;;;;;;5042881;28;20233;-80
2022/12/08 13:51:08;;;;;;;19.33;12.95;;;4.00;1.00;;;;;;5052461;28;20271;-86
2022/12/08 13:53:48;;;;;;;27.98;17.70;;;4.00;1.00;;;;;;5061331;28;20244;-86
2022/12/08 13:56:19;;;;;;;20.58;13.20;;;4.00;1.00;;;;;;5054974;28;20319;-84
2022/12/08 13:58:57;;;;;;;18.67;13.68;;;4.00;1.00;;;;;;5049151;28;20222;-86
2022/12/08 14:01:54;;;;;;;20.40;13.70;;;4.00;1.00;;;;;;5051040;28;20264;-82
2022/12/08 14:04:30;;;;;;;24.25;14.77;;;4.10;1.00;;;;;;5059583;28;20357;-85
2022/12/08 14:09:50;;;;;;;18.92;12.43;;;4.10;1.00;;;;;;5313698;23;20219;-79
2022/12/08 14:15:13;;;;;;;19.40;13.20;;;4.10;1.00;;;;;;5074529;28;20235;-84
2022/12/08 14:18:10;;;;;;;21.30;13.98;;;4.10;1.00;;;;;;5063114;28;20238;-83
2022/12/08 14:21:13;;;;;;;19.83;13.98;;;4.00;1.00;;;;;;5088378;28;20220;-83
2022/12/08 14:23:48;;;;;;;20.45;12.60;;;4.00;1.00;;;;;;5085009;28;20371;-78
2022/12/08 14:26:26;;;;;;;15.43;9.80;;;4.00;1.00;;;;;;5084041;28;20301;-83
2022/12/08 14:29:27;;;;;;;16.13;9.93;;;3.90;1.00;;;;;;5086532;28;20254;-84
2022/12/08 14:31:58;;;;;;;15.32;10.10;;;3.90;1.00;;;;;;5061925;28;20244;-83